sensor_id;sensor_type;location;lat;lon;timestamp;P1;durP1;ratioP1;P2;durP2;ratioP2
71502;SDS011;59322;51.382;7.372;2024-01-30T00:01:41;27.30;;;23.48;;
71502;SDS011;59322;51.382;7.372;2024-01-30T00:04:06;24.85;;;22.30;;
71502;SDS011;59322;51.382;7.372;2024-01-30T00:06:32;25.23;;;22.63;;
71502;SDS011;59322;51.382;7.372;2024-01-30T00:08:58;26.52;;;23.48;;
71502;SDS011;59322;51.382;7.372;2024-01-30T00:11:24;25.77;;;23.13;;
71502;SDS011;59322;51.382;7.372;2024-01-30T00:13:51;28.50;;;22.88;;
71502;SDS011;59322;51.382;7.372;2024-01-30T00:16:20;25.33;;;22.83;;
71502;SDS011;59322;51.382;7.372;2024-01-30T00:18:46;24.58;;;22.08;;
71502;SDS011;59322;51.382;7.372;2024-01-30T00:21:12;25.77;;;23.05;;
71502;SDS011;59322;51.382;7.372;2024-01-30T00:23:38;25.60;;;22.80;;
71502;SDS011;59322;51.382;7.372;2024-01-30T00:26:04;25.13;;;22.42;;
71502;SDS011;59322;51.382;7.372;2024-01-30T00:28:30;25.92;;;23.33;;
71502;SDS011;59322;51.382;7.372;2024-01-30T00:30:55;25.65;;;22.85;;
71502;SDS011;59322;51.382;7.372;2024-01-30T00:33:21;24.67;;;22.02;;
71502;SDS011;59322;51.382;7.372;2024-01-30T00:35:47;24.73;;;22.20;;
71502;SDS011;59322;51.382;7.372;2024-01-30T00:38:13;24.02;;;21.42;;
71502;SDS011;59322;51.382;7.372;2024-01-30T00:40:39;24.83;;;21.92;;
71502;SDS011;59322;51.382;7.372;2024-01-30T00:43:05;27.30;;;22.60;;
71502;SDS011;59322;51.382;7.372;2024-01-30T00:45:31;25.55;;;22.85;;
71502;SDS011;59322;51.382;7.372;2024-01-30T00:47:57;27.25;;;22.70;;
71502;SDS011;59322;51.382;7.372;2024-01-30T00:50:23;26.75;;;24.02;;
71502;SDS011;59322;51.382;7.372;2024-01-30T00:52:48;26.73;;;23.90;;
71502;SDS011;59322;51.382;7.372;2024-01-30T00:55:14;25.63;;;22.27;;
71502;SDS011;59322;51.382;7.372;2024-01-30T00:57:40;25.63;;;22.98;;
71502;SDS011;59322;51.382;7.372;2024-01-30T01:00:07;24.95;;;22.05;;
71502;SDS011;59322;51.382;7.372;2024-01-30T01:02:33;25.88;;;23.05;;
71502;SDS011;59322;51.382;7.372;2024-01-30T01:04:59;28.50;;;23.52;;
71502;SDS011;59322;51.382;7.372;2024-01-30T01:07:25;28.58;;;24.40;;
71502;SDS011;59322;51.382;7.372;2024-01-30T01:09:51;26.40;;;23.60;;
71502;SDS011;59322;51.382;7.372;2024-01-30T01:12:17;26.52;;;23.17;;
71502;SDS011;59322;51.382;7.372;2024-01-30T01:14:43;25.55;;;22.80;;
71502;SDS011;59322;51.382;7.372;2024-01-30T01:17:09;29.65;;;23.83;;
71502;SDS011;59322;51.382;7.372;2024-01-30T01:19:35;28.05;;;23.60;;
71502;SDS011;59322;51.382;7.372;2024-01-30T01:22:01;31.38;;;23.58;;
71502;SDS011;59322;51.382;7.372;2024-01-30T01:24:27;25.83;;;23.10;;
71502;SDS011;59322;51.382;7.372;2024-01-30T01:26:53;33.58;;;24.77;;
71502;SDS011;59322;51.382;7.372;2024-01-30T01:29:18;26.67;;;23.30;;
71502;SDS011;59322;51.382;7.372;2024-01-30T01:31:44;29.58;;;23.33;;
71502;SDS011;59322;51.382;7.372;2024-01-30T01:34:10;30.45;;;22.95;;
71502;SDS011;59322;51.382;7.372;2024-01-30T01:36:36;28.65;;;23.77;;
71502;SDS011;59322;51.382;7.372;2024-01-30T01:39:02;28.52;;;23.63;;
71502;SDS011;59322;51.382;7.372;2024-01-30T01:41:31;25.27;;;22.50;;
71502;SDS011;59322;51.382;7.372;2024-01-30T01:43:57;31.17;;;23.63;;
71502;SDS011;59322;51.382;7.372;2024-01-30T01:46:24;26.75;;;22.75;;
71502;SDS011;59322;51.382;7.372;2024-01-30T01:48:50;28.80;;;24.05;;
71502;SDS011;59322;51.382;7.372;2024-01-30T01:51:16;27.58;;;23.20;;
71502;SDS011;59322;51.382;7.372;2024-01-30T01:53:42;28.50;;;23.20;;
71502;SDS011;59322;51.382;7.372;2024-01-30T01:56:08;27.67;;;23.25;;
71502;SDS011;59322;51.382;7.372;2024-01-30T01:58:34;26.92;;;23.83;;
71502;SDS011;59322;51.382;7.372;2024-01-30T02:01:01;30.20;;;24.10;;
71502;SDS011;59322;51.382;7.372;2024-01-30T02:03:27;26.75;;;22.45;;
71502;SDS011;59322;51.382;7.372;2024-01-30T02:05:53;28.90;;;23.42;;
71502;SDS011;59322;51.382;7.372;2024-01-30T02:08:19;28.50;;;23.58;;
71502;SDS011;59322;51.382;7.372;2024-01-30T02:10:45;27.80;;;24.38;;
71502;SDS011;59322;51.382;7.372;2024-01-30T02:13:11;30.63;;;24.42;;
71502;SDS011;59322;51.382;7.372;2024-01-30T02:15:37;28.15;;;24.58;;
71502;SDS011;59322;51.382;7.372;2024-01-30T02:18:03;27.25;;;23.13;;
71502;SDS011;59322;51.382;7.372;2024-01-30T02:20:29;27.95;;;22.95;;
71502;SDS011;59322;51.382;7.372;2024-01-30T02:22:56;28.23;;;23.90;;
71502;SDS011;59322;51.382;7.372;2024-01-30T02:25:31;29.67;;;24.98;;
71502;SDS011;59322;51.382;7.372;2024-01-30T02:27:57;29.10;;;23.98;;
71502;SDS011;59322;51.382;7.372;2024-01-30T02:30:22;29.92;;;23.98;;
71502;SDS011;59322;51.382;7.372;2024-01-30T02:32:48;30.40;;;24.17;;
71502;SDS011;59322;51.382;7.372;2024-01-30T02:35:14;29.33;;;23.63;;
71502;SDS011;59322;51.382;7.372;2024-01-30T02:37:40;31.40;;;24.05;;
71502;SDS011;59322;51.382;7.372;2024-01-30T02:40:06;30.05;;;24.48;;
71502;SDS011;59322;51.382;7.372;2024-01-30T02:42:32;25.80;;;23.00;;
71502;SDS011;59322;51.382;7.372;2024-01-30T02:44:58;29.58;;;23.85;;
71502;SDS011;59322;51.382;7.372;2024-01-30T02:47:25;27.60;;;24.15;;
71502;SDS011;59322;51.382;7.372;2024-01-30T02:49:51;27.73;;;23.38;;
71502;SDS011;59322;51.382;7.372;2024-01-30T02:52:16;27.90;;;23.33;;
71502;SDS011;59322;51.382;7.372;2024-01-30T02:54:42;31.20;;;23.67;;
71502;SDS011;59322;51.382;7.372;2024-01-30T02:57:08;27.42;;;22.88;;
71502;SDS011;59322;51.382;7.372;2024-01-30T02:59:34;27.50;;;22.73;;
71502;SDS011;59322;51.382;7.372;2024-01-30T03:02:00;27.55;;;22.35;;
71502;SDS011;59322;51.382;7.372;2024-01-30T03:04:26;28.83;;;23.05;;
71502;SDS011;59322;51.382;7.372;2024-01-30T03:06:52;27.23;;;24.25;;
71502;SDS011;59322;51.382;7.372;2024-01-30T03:09:18;28.27;;;23.15;;
71502;SDS011;59322;51.382;7.372;2024-01-30T03:11:44;28.42;;;22.85;;
71502;SDS011;59322;51.382;7.372;2024-01-30T03:14:10;27.15;;;22.33;;
71502;SDS011;59322;51.382;7.372;2024-01-30T03:16:36;26.42;;;22.33;;
71502;SDS011;59322;51.382;7.372;2024-01-30T03:19:02;25.58;;;22.77;;
71502;SDS011;59322;51.382;7.372;2024-01-30T03:21:28;25.63;;;22.70;;
71502;SDS011;59322;51.382;7.372;2024-01-30T03:23:53;26.20;;;22.65;;
71502;SDS011;59322;51.382;7.372;2024-01-30T03:26:19;26.50;;;22.33;;
71502;SDS011;59322;51.382;7.372;2024-01-30T03:28:45;30.42;;;22.65;;
71502;SDS011;59322;51.382;7.372;2024-01-30T03:31:13;27.25;;;23.50;;
71502;SDS011;59322;51.382;7.372;2024-01-30T03:33:39;28.75;;;22.73;;
71502;SDS011;59322;51.382;7.372;2024-01-30T03:36:05;26.48;;;23.17;;
71502;SDS011;59322;51.382;7.372;2024-01-30T03:38:31;29.08;;;22.80;;
71502;SDS011;59322;51.382;7.372;2024-01-30T03:40:57;25.83;;;22.73;;
71502;SDS011;59322;51.382;7.372;2024-01-30T03:43:23;26.65;;;23.15;;
71502;SDS011;59322;51.382;7.372;2024-01-30T03:45:49;26.05;;;22.48;;
71502;SDS011;59322;51.382;7.372;2024-01-30T03:48:15;27.95;;;22.63;;
71502;SDS011;59322;51.382;7.372;2024-01-30T03:50:41;26.40;;;22.35;;
71502;SDS011;59322;51.382;7.372;2024-01-30T03:53:07;26.52;;;23.05;;
71502;SDS011;59322;51.382;7.372;2024-01-30T03:55:33;25.52;;;21.83;;
71502;SDS011;59322;51.382;7.372;2024-01-30T03:57:58;24.05;;;21.75;;
71502;SDS011;59322;51.382;7.372;2024-01-30T04:00:24;24.92;;;21.33;;
71502;SDS011;59322;51.382;7.372;2024-01-30T04:02:50;23.77;;;21.05;;
71502;SDS011;59322;51.382;7.372;2024-01-30T04:05:16;23.95;;;20.80;;
71502;SDS011;59322;51.382;7.372;2024-01-30T04:07:42;24.90;;;21.30;;
71502;SDS011;59322;51.382;7.372;2024-01-30T04:10:09;26.13;;;21.23;;
71502;SDS011;59322;51.382;7.372;2024-01-30T04:12:35;24.15;;;21.25;;
71502;SDS011;59322;51.382;7.372;2024-01-30T04:15:02;28.00;;;21.38;;
71502;SDS011;59322;51.382;7.372;2024-01-30T04:17:28;23.10;;;20.55;;
71502;SDS011;59322;51.382;7.372;2024-01-30T04:19:54;24.70;;;21.10;;
71502;SDS011;59322;51.382;7.372;2024-01-30T04:22:20;25.83;;;22.08;;
71502;SDS011;59322;51.382;7.372;2024-01-30T04:24:46;23.75;;;20.65;;
71502;SDS011;59322;51.382;7.372;2024-01-30T04:27:12;24.83;;;22.02;;
71502;SDS011;59322;51.382;7.372;2024-01-30T04:29:38;25.88;;;22.00;;
71502;SDS011;59322;51.382;7.372;2024-01-30T04:32:04;28.42;;;21.83;;
71502;SDS011;59322;51.382;7.372;2024-01-30T04:34:30;28.48;;;22.30;;
71502;SDS011;59322;51.382;7.372;2024-01-30T04:36:56;30.98;;;21.77;;
71502;SDS011;59322;51.382;7.372;2024-01-30T04:39:22;24.70;;;21.38;;
71502;SDS011;59322;51.382;7.372;2024-01-30T04:41:47;25.23;;;22.10;;
71502;SDS011;59322;51.382;7.372;2024-01-30T04:44:14;24.98;;;21.98;;
71502;SDS011;59322;51.382;7.372;2024-01-30T04:46:40;26.25;;;22.00;;
71502;SDS011;59322;51.382;7.372;2024-01-30T04:49:05;25.52;;;21.92;;
71502;SDS011;59322;51.382;7.372;2024-01-30T04:51:31;23.98;;;21.27;;
71502;SDS011;59322;51.382;7.372;2024-01-30T04:53:57;25.70;;;20.92;;
71502;SDS011;59322;51.382;7.372;2024-01-30T04:56:23;28.40;;;21.25;;
71502;SDS011;59322;51.382;7.372;2024-01-30T04:58:49;26.67;;;21.55;;
71502;SDS011;59322;51.382;7.372;2024-01-30T05:01:18;24.80;;;22.38;;
71502;SDS011;59322;51.382;7.372;2024-01-30T05:03:44;24.23;;;21.02;;
71502;SDS011;59322;51.382;7.372;2024-01-30T05:06:10;28.35;;;21.52;;
71502;SDS011;59322;51.382;7.372;2024-01-30T05:08:36;23.13;;;20.55;;
71502;SDS011;59322;51.382;7.372;2024-01-30T05:11:02;23.92;;;21.48;;
71502;SDS011;59322;51.382;7.372;2024-01-30T05:13:28;27.23;;;22.13;;
71502;SDS011;59322;51.382;7.372;2024-01-30T05:15:54;29.85;;;22.27;;
71502;SDS011;59322;51.382;7.372;2024-01-30T05:18:20;25.00;;;22.25;;
71502;SDS011;59322;51.382;7.372;2024-01-30T05:20:46;26.70;;;22.30;;
71502;SDS011;59322;51.382;7.372;2024-01-30T05:23:11;24.65;;;21.20;;
71502;SDS011;59322;51.382;7.372;2024-01-30T05:25:37;25.42;;;20.27;;
71502;SDS011;59322;51.382;7.372;2024-01-30T05:28:03;24.75;;;22.02;;
71502;SDS011;59322;51.382;7.372;2024-01-30T05:30:29;27.08;;;22.40;;
71502;SDS011;59322;51.382;7.372;2024-01-30T05:32:55;24.17;;;21.60;;
71502;SDS011;59322;51.382;7.372;2024-01-30T05:35:21;27.67;;;22.08;;
71502;SDS011;59322;51.382;7.372;2024-01-30T05:37:50;26.70;;;21.15;;
71502;SDS011;59322;51.382;7.372;2024-01-30T05:40:16;23.17;;;20.67;;
71502;SDS011;59322;51.382;7.372;2024-01-30T05:42:42;27.20;;;21.20;;
71502;SDS011;59322;51.382;7.372;2024-01-30T05:45:08;24.75;;;21.38;;
71502;SDS011;59322;51.382;7.372;2024-01-30T05:47:34;24.13;;;21.17;;
71502;SDS011;59322;51.382;7.372;2024-01-30T05:50:00;23.83;;;21.25;;
71502;SDS011;59322;51.382;7.372;2024-01-30T05:52:26;23.40;;;21.05;;
71502;SDS011;59322;51.382;7.372;2024-01-30T05:54:52;23.52;;;21.02;;
71502;SDS011;59322;51.382;7.372;2024-01-30T05:57:18;25.60;;;21.90;;
71502;SDS011;59322;51.382;7.372;2024-01-30T05:59:44;24.45;;;21.25;;
71502;SDS011;59322;51.382;7.372;2024-01-30T06:02:10;27.65;;;21.25;;
71502;SDS011;59322;51.382;7.372;2024-01-30T06:04:36;28.08;;;22.05;;
71502;SDS011;59322;51.382;7.372;2024-01-30T06:07:02;25.75;;;21.25;;
71502;SDS011;59322;51.382;7.372;2024-01-30T06:09:28;22.52;;;20.15;;
71502;SDS011;59322;51.382;7.372;2024-01-30T06:11:54;25.02;;;20.83;;
71502;SDS011;59322;51.382;7.372;2024-01-30T06:14:20;23.83;;;21.10;;
71502;SDS011;59322;51.382;7.372;2024-01-30T06:16:46;23.25;;;20.83;;
71502;SDS011;59322;51.382;7.372;2024-01-30T06:19:12;22.63;;;20.35;;
71502;SDS011;59322;51.382;7.372;2024-01-30T06:21:38;22.15;;;19.85;;
71502;SDS011;59322;51.382;7.372;2024-01-30T06:26:48;23.65;;;20.00;;
71502;SDS011;59322;51.382;7.372;2024-01-30T06:31:59;23.50;;;21.05;;
71502;SDS011;59322;51.382;7.372;2024-01-30T06:37:09;23.13;;;20.58;;
71502;SDS011;59322;51.382;7.372;2024-01-30T06:39:35;22.65;;;20.35;;
71502;SDS011;59322;51.382;7.372;2024-01-30T06:42:01;22.50;;;19.95;;
71502;SDS011;59322;51.382;7.372;2024-01-30T06:44:27;22.15;;;19.92;;
71502;SDS011;59322;51.382;7.372;2024-01-30T06:46:53;22.90;;;20.42;;
71502;SDS011;59322;51.382;7.372;2024-01-30T06:49:19;22.85;;;20.50;;
71502;SDS011;59322;51.382;7.372;2024-01-30T06:51:45;22.48;;;20.10;;
71502;SDS011;59322;51.382;7.372;2024-01-30T06:54:11;23.25;;;20.73;;
71502;SDS011;59322;51.382;7.372;2024-01-30T06:56:37;24.15;;;20.92;;
71502;SDS011;59322;51.382;7.372;2024-01-30T06:59:03;24.15;;;21.52;;
71502;SDS011;59322;51.382;7.372;2024-01-30T07:01:29;25.10;;;21.70;;
71502;SDS011;59322;51.382;7.372;2024-01-30T07:03:55;22.92;;;19.95;;
71502;SDS011;59322;51.382;7.372;2024-01-30T07:06:21;23.90;;;20.80;;
71502;SDS011;59322;51.382;7.372;2024-01-30T07:08:47;23.23;;;20.83;;
71502;SDS011;59322;51.382;7.372;2024-01-30T07:11:19;26.02;;;21.40;;
71502;SDS011;59322;51.382;7.372;2024-01-30T07:13:45;24.10;;;21.63;;
71502;SDS011;59322;51.382;7.372;2024-01-30T07:16:11;26.90;;;23.60;;
71502;SDS011;59322;51.382;7.372;2024-01-30T07:18:37;27.52;;;24.73;;
71502;SDS011;59322;51.382;7.372;2024-01-30T07:21:03;27.95;;;24.98;;
71502;SDS011;59322;51.382;7.372;2024-01-30T07:23:29;27.50;;;23.92;;
71502;SDS011;59322;51.382;7.372;2024-01-30T07:25:55;26.88;;;24.00;;
71502;SDS011;59322;51.382;7.372;2024-01-30T07:28:21;29.10;;;23.70;;
71502;SDS011;59322;51.382;7.372;2024-01-30T07:30:47;23.35;;;21.02;;
71502;SDS011;59322;51.382;7.372;2024-01-30T07:33:13;23.98;;;21.67;;
71502;SDS011;59322;51.382;7.372;2024-01-30T07:35:39;22.90;;;20.67;;
71502;SDS011;59322;51.382;7.372;2024-01-30T07:38:05;24.75;;;22.35;;
71502;SDS011;59322;51.382;7.372;2024-01-30T07:40:31;25.02;;;22.20;;
71502;SDS011;59322;51.382;7.372;2024-01-30T07:42:56;23.90;;;21.35;;
71502;SDS011;59322;51.382;7.372;2024-01-30T07:45:22;24.67;;;22.33;;
71502;SDS011;59322;51.382;7.372;2024-01-30T07:47:49;24.77;;;22.15;;
71502;SDS011;59322;51.382;7.372;2024-01-30T07:50:14;23.48;;;21.13;;
71502;SDS011;59322;51.382;7.372;2024-01-30T07:52:41;24.65;;;22.25;;
71502;SDS011;59322;51.382;7.372;2024-01-30T07:55:07;26.33;;;23.67;;
71502;SDS011;59322;51.382;7.372;2024-01-30T07:57:33;27.27;;;24.77;;
71502;SDS011;59322;51.382;7.372;2024-01-30T07:59:58;28.90;;;26.50;;
71502;SDS011;59322;51.382;7.372;2024-01-30T08:02:24;31.90;;;29.20;;
71502;SDS011;59322;51.382;7.372;2024-01-30T08:04:50;31.95;;;29.50;;
71502;SDS011;59322;51.382;7.372;2024-01-30T08:07:16;34.50;;;31.80;;
71502;SDS011;59322;51.382;7.372;2024-01-30T08:09:42;31.90;;;29.17;;
71502;SDS011;59322;51.382;7.372;2024-01-30T08:12:08;38.75;;;35.45;;
71502;SDS011;59322;51.382;7.372;2024-01-30T08:14:34;38.25;;;35.33;;
71502;SDS011;59322;51.382;7.372;2024-01-30T08:17:00;41.70;;;38.50;;
71502;SDS011;59322;51.382;7.372;2024-01-30T08:19:26;49.28;;;45.65;;
71502;SDS011;59322;51.382;7.372;2024-01-30T08:21:52;52.38;;;48.40;;
71502;SDS011;59322;51.382;7.372;2024-01-30T08:24:17;48.67;;;45.30;;
71502;SDS011;59322;51.382;7.372;2024-01-30T08:26:43;55.63;;;51.58;;
71502;SDS011;59322;51.382;7.372;2024-01-30T08:29:09;53.85;;;50.10;;
71502;SDS011;59322;51.382;7.372;2024-01-30T08:31:35;53.08;;;49.45;;
71502;SDS011;59322;51.382;7.372;2024-01-30T08:34:01;55.30;;;51.53;;
71502;SDS011;59322;51.382;7.372;2024-01-30T08:36:27;52.88;;;48.92;;
71502;SDS011;59322;51.382;7.372;2024-01-30T08:38:53;53.17;;;49.47;;
71502;SDS011;59322;51.382;7.372;2024-01-30T08:41:19;52.05;;;48.08;;
71502;SDS011;59322;51.382;7.372;2024-01-30T08:43:45;51.58;;;47.78;;
71502;SDS011;59322;51.382;7.372;2024-01-30T08:46:11;51.50;;;47.58;;
71502;SDS011;59322;51.382;7.372;2024-01-30T08:48:37;52.22;;;48.60;;
71502;SDS011;59322;51.382;7.372;2024-01-30T08:51:03;48.20;;;44.78;;
71502;SDS011;59322;51.382;7.372;2024-01-30T08:53:29;47.50;;;44.22;;
71502;SDS011;59322;51.382;7.372;2024-01-30T08:55:54;46.47;;;43.28;;
71502;SDS011;59322;51.382;7.372;2024-01-30T08:58:20;47.25;;;43.92;;
71502;SDS011;59322;51.382;7.372;2024-01-30T09:00:46;45.58;;;42.33;;
71502;SDS011;59322;51.382;7.372;2024-01-30T09:03:12;44.00;;;40.97;;
71502;SDS011;59322;51.382;7.372;2024-01-30T09:05:38;48.97;;;45.47;;
71502;SDS011;59322;51.382;7.372;2024-01-30T09:08:04;50.30;;;46.80;;
71502;SDS011;59322;51.382;7.372;2024-01-30T09:10:30;48.97;;;45.67;;
71502;SDS011;59322;51.382;7.372;2024-01-30T09:12:56;47.55;;;43.50;;
71502;SDS011;59322;51.382;7.372;2024-01-30T09:15:22;48.03;;;44.30;;
71502;SDS011;59322;51.382;7.372;2024-01-30T09:17:47;47.13;;;43.70;;
71502;SDS011;59322;51.382;7.372;2024-01-30T09:20:13;47.13;;;43.70;;
71502;SDS011;59322;51.382;7.372;2024-01-30T09:22:39;46.65;;;43.33;;
71502;SDS011;59322;51.382;7.372;2024-01-30T09:25:05;45.88;;;42.38;;
71502;SDS011;59322;51.382;7.372;2024-01-30T09:27:31;41.95;;;38.85;;
71502;SDS011;59322;51.382;7.372;2024-01-30T09:29:57;44.03;;;40.72;;
71502;SDS011;59322;51.382;7.372;2024-01-30T09:32:23;48.03;;;44.83;;
71502;SDS011;59322;51.382;7.372;2024-01-30T09:34:49;47.85;;;44.28;;
71502;SDS011;59322;51.382;7.372;2024-01-30T09:37:15;50.28;;;46.53;;
71502;SDS011;59322;51.382;7.372;2024-01-30T09:39:41;49.55;;;45.85;;
71502;SDS011;59322;51.382;7.372;2024-01-30T09:42:12;48.33;;;44.83;;
71502;SDS011;59322;51.382;7.372;2024-01-30T09:44:42;48.25;;;44.75;;
71502;SDS011;59322;51.382;7.372;2024-01-30T09:47:09;49.63;;;46.22;;
71502;SDS011;59322;51.382;7.372;2024-01-30T09:49:35;51.95;;;48.33;;
71502;SDS011;59322;51.382;7.372;2024-01-30T09:52:02;52.90;;;49.28;;
71502;SDS011;59322;51.382;7.372;2024-01-30T09:54:29;52.08;;;48.45;;
71502;SDS011;59322;51.382;7.372;2024-01-30T09:56:55;54.38;;;50.22;;
71502;SDS011;59322;51.382;7.372;2024-01-30T09:59:21;54.08;;;50.30;;
71502;SDS011;59322;51.382;7.372;2024-01-30T10:01:47;55.22;;;51.30;;
71502;SDS011;59322;51.382;7.372;2024-01-30T10:04:13;53.75;;;50.10;;
71502;SDS011;59322;51.382;7.372;2024-01-30T10:06:40;55.72;;;52.03;;
71502;SDS011;59322;51.382;7.372;2024-01-30T10:09:06;51.88;;;48.08;;
71502;SDS011;59322;51.382;7.372;2024-01-30T10:11:32;48.75;;;45.25;;
71502;SDS011;59322;51.382;7.372;2024-01-30T10:13:57;47.60;;;44.10;;
71502;SDS011;59322;51.382;7.372;2024-01-30T10:16:23;46.63;;;43.30;;
71502;SDS011;59322;51.382;7.372;2024-01-30T10:18:49;44.05;;;41.05;;
71502;SDS011;59322;51.382;7.372;2024-01-30T10:21:15;46.20;;;42.85;;
71502;SDS011;59322;51.382;7.372;2024-01-30T10:23:43;44.67;;;41.28;;
71502;SDS011;59322;51.382;7.372;2024-01-30T10:26:09;48.50;;;44.95;;
71502;SDS011;59322;51.382;7.372;2024-01-30T10:28:35;48.58;;;45.10;;
71502;SDS011;59322;51.382;7.372;2024-01-30T10:31:01;46.92;;;43.63;;
71502;SDS011;59322;51.382;7.372;2024-01-30T10:33:27;44.75;;;41.58;;
71502;SDS011;59322;51.382;7.372;2024-01-30T10:36:02;46.10;;;42.67;;
71502;SDS011;59322;51.382;7.372;2024-01-30T10:38:29;48.22;;;44.67;;
71502;SDS011;59322;51.382;7.372;2024-01-30T10:40:56;44.95;;;41.72;;
71502;SDS011;59322;51.382;7.372;2024-01-30T10:43:22;47.00;;;43.50;;
71502;SDS011;59322;51.382;7.372;2024-01-30T10:45:49;48.90;;;45.45;;
71502;SDS011;59322;51.382;7.372;2024-01-30T10:48:15;47.70;;;44.28;;
71502;SDS011;59322;51.382;7.372;2024-01-30T10:50:42;48.15;;;44.65;;
71502;SDS011;59322;51.382;7.372;2024-01-30T10:53:08;48.13;;;44.72;;
71502;SDS011;59322;51.382;7.372;2024-01-30T10:55:34;47.22;;;43.85;;
71502;SDS011;59322;51.382;7.372;2024-01-30T10:58:00;43.70;;;40.50;;
71502;SDS011;59322;51.382;7.372;2024-01-30T11:00:26;42.55;;;39.55;;
71502;SDS011;59322;51.382;7.372;2024-01-30T11:02:52;44.45;;;41.25;;
71502;SDS011;59322;51.382;7.372;2024-01-30T11:05:25;44.58;;;41.38;;
71502;SDS011;59322;51.382;7.372;2024-01-30T11:07:51;38.15;;;35.35;;
71502;SDS011;59322;51.382;7.372;2024-01-30T11:10:16;44.17;;;41.17;;
71502;SDS011;59322;51.382;7.372;2024-01-30T11:12:43;40.33;;;37.05;;
71502;SDS011;59322;51.382;7.372;2024-01-30T11:17:41;40.15;;;37.22;;
71502;SDS011;59322;51.382;7.372;2024-01-30T11:20:13;42.08;;;38.88;;
71502;SDS011;59322;51.382;7.372;2024-01-30T11:22:40;41.75;;;38.67;;
71502;SDS011;59322;51.382;7.372;2024-01-30T11:25:06;32.25;;;29.65;;
71502;SDS011;59322;51.382;7.372;2024-01-30T11:27:36;35.80;;;33.05;;
71502;SDS011;59322;51.382;7.372;2024-01-30T11:30:03;34.40;;;31.52;;
71502;SDS011;59322;51.382;7.372;2024-01-30T11:32:29;33.10;;;30.40;;
71502;SDS011;59322;51.382;7.372;2024-01-30T11:34:55;34.75;;;31.75;;
71502;SDS011;59322;51.382;7.372;2024-01-30T11:37:21;33.92;;;31.45;;
71502;SDS011;59322;51.382;7.372;2024-01-30T11:39:48;34.35;;;31.75;;
71502;SDS011;59322;51.382;7.372;2024-01-30T11:42:13;35.63;;;32.78;;
71502;SDS011;59322;51.382;7.372;2024-01-30T11:44:40;35.35;;;32.58;;
71502;SDS011;59322;51.382;7.372;2024-01-30T11:47:06;38.22;;;34.67;;
71502;SDS011;59322;51.382;7.372;2024-01-30T11:49:32;36.88;;;34.05;;
71502;SDS011;59322;51.382;7.372;2024-01-30T11:51:58;41.10;;;37.70;;
71502;SDS011;59322;51.382;7.372;2024-01-30T11:54:24;36.20;;;33.17;;
71502;SDS011;59322;51.382;7.372;2024-01-30T11:56:50;36.88;;;34.00;;
71502;SDS011;59322;51.382;7.372;2024-01-30T11:59:15;33.58;;;30.50;;
71502;SDS011;59322;51.382;7.372;2024-01-30T12:01:41;35.78;;;32.83;;
71502;SDS011;59322;51.382;7.372;2024-01-30T12:04:07;34.78;;;31.77;;
71502;SDS011;59322;51.382;7.372;2024-01-30T12:06:33;32.58;;;29.80;;
71502;SDS011;59322;51.382;7.372;2024-01-30T12:09:00;33.75;;;31.20;;
71502;SDS011;59322;51.382;7.372;2024-01-30T12:11:26;34.38;;;30.95;;
71502;SDS011;59322;51.382;7.372;2024-01-30T12:13:52;35.58;;;32.65;;
71502;SDS011;59322;51.382;7.372;2024-01-30T12:16:19;35.67;;;32.22;;
71502;SDS011;59322;51.382;7.372;2024-01-30T12:18:45;36.63;;;33.40;;
71502;SDS011;59322;51.382;7.372;2024-01-30T12:21:11;39.63;;;36.15;;
71502;SDS011;59322;51.382;7.372;2024-01-30T12:23:36;43.22;;;39.80;;
71502;SDS011;59322;51.382;7.372;2024-01-30T12:26:03;42.70;;;39.10;;
71502;SDS011;59322;51.382;7.372;2024-01-30T12:28:29;42.60;;;39.35;;
71502;SDS011;59322;51.382;7.372;2024-01-30T12:31:01;44.05;;;40.40;;
71502;SDS011;59322;51.382;7.372;2024-01-30T12:33:27;49.13;;;45.13;;
71502;SDS011;59322;51.382;7.372;2024-01-30T12:35:53;45.00;;;41.55;;
71502;SDS011;59322;51.382;7.372;2024-01-30T12:41:03;52.35;;;48.45;;
71502;SDS011;59322;51.382;7.372;2024-01-30T12:46:16;50.63;;;46.72;;
71502;SDS011;59322;51.382;7.372;2024-01-30T12:51:44;50.97;;;47.38;;
71502;SDS011;59322;51.382;7.372;2024-01-30T12:54:12;54.97;;;50.60;;
71502;SDS011;59322;51.382;7.372;2024-01-30T12:56:38;55.25;;;50.67;;
71502;SDS011;59322;51.382;7.372;2024-01-30T12:59:04;54.63;;;50.25;;
71502;SDS011;59322;51.382;7.372;2024-01-30T13:01:30;52.70;;;48.08;;
71502;SDS011;59322;51.382;7.372;2024-01-30T13:03:56;51.50;;;47.28;;
71502;SDS011;59322;51.382;7.372;2024-01-30T13:06:21;52.20;;;47.97;;
71502;SDS011;59322;51.382;7.372;2024-01-30T13:08:47;49.63;;;45.35;;
71502;SDS011;59322;51.382;7.372;2024-01-30T13:11:13;51.70;;;47.70;;
71502;SDS011;59322;51.382;7.372;2024-01-30T13:13:39;48.85;;;44.88;;
71502;SDS011;59322;51.382;7.372;2024-01-30T13:16:05;51.30;;;47.15;;
71502;SDS011;59322;51.382;7.372;2024-01-30T13:18:31;52.33;;;48.60;;
71502;SDS011;59322;51.382;7.372;2024-01-30T13:20:57;51.80;;;47.42;;
71502;SDS011;59322;51.382;7.372;2024-01-30T13:23:23;56.00;;;51.33;;
71502;SDS011;59322;51.382;7.372;2024-01-30T13:25:49;55.10;;;51.08;;
71502;SDS011;59322;51.382;7.372;2024-01-30T13:28:15;53.55;;;49.28;;
71502;SDS011;59322;51.382;7.372;2024-01-30T13:30:41;52.60;;;48.67;;
71502;SDS011;59322;51.382;7.372;2024-01-30T13:33:06;56.33;;;52.17;;
71502;SDS011;59322;51.382;7.372;2024-01-30T13:35:32;57.35;;;52.83;;
71502;SDS011;59322;51.382;7.372;2024-01-30T13:37:58;53.83;;;49.90;;
71502;SDS011;59322;51.382;7.372;2024-01-30T13:40:24;52.28;;;48.33;;
71502;SDS011;59322;51.382;7.372;2024-01-30T13:42:50;57.10;;;52.60;;
71502;SDS011;59322;51.382;7.372;2024-01-30T13:45:16;48.67;;;44.30;;
71502;SDS011;59322;51.382;7.372;2024-01-30T13:47:42;53.00;;;49.13;;
71502;SDS011;59322;51.382;7.372;2024-01-30T13:50:08;54.33;;;50.00;;
71502;SDS011;59322;51.382;7.372;2024-01-30T13:52:34;56.97;;;52.88;;
71502;SDS011;59322;51.382;7.372;2024-01-30T13:54:59;55.85;;;51.63;;
71502;SDS011;59322;51.382;7.372;2024-01-30T13:57:25;57.38;;;53.25;;
71502;SDS011;59322;51.382;7.372;2024-01-30T13:59:51;59.53;;;54.92;;
71502;SDS011;59322;51.382;7.372;2024-01-30T14:02:17;54.67;;;50.47;;
71502;SDS011;59322;51.382;7.372;2024-01-30T14:04:43;59.88;;;55.45;;
71502;SDS011;59322;51.382;7.372;2024-01-30T14:07:09;54.15;;;50.17;;
71502;SDS011;59322;51.382;7.372;2024-01-30T14:09:35;53.30;;;49.42;;
71502;SDS011;59322;51.382;7.372;2024-01-30T14:12:01;54.42;;;50.25;;
71502;SDS011;59322;51.382;7.372;2024-01-30T14:14:27;53.80;;;49.75;;
71502;SDS011;59322;51.382;7.372;2024-01-30T14:16:53;54.55;;;50.55;;
71502;SDS011;59322;51.382;7.372;2024-01-30T14:19:18;54.92;;;50.95;;
71502;SDS011;59322;51.382;7.372;2024-01-30T14:21:44;57.40;;;53.08;;
71502;SDS011;59322;51.382;7.372;2024-01-30T14:24:10;52.08;;;48.33;;
71502;SDS011;59322;51.382;7.372;2024-01-30T14:26:36;52.47;;;48.78;;
71502;SDS011;59322;51.382;7.372;2024-01-30T14:29:02;52.33;;;48.33;;
71502;SDS011;59322;51.382;7.372;2024-01-30T14:31:28;55.13;;;50.65;;
71502;SDS011;59322;51.382;7.372;2024-01-30T14:33:54;54.35;;;49.78;;